Time;durP1;ratioP1;P1;durP2;ratioP2;P2;SDS_P1;SDS_P2;PMS_P1;PMS_P2;Temp;Humidity;BMP_temperature;BMP_pressure;BME280_temperature;BME280_humidity;BME280_pressure;Samples;Min_cycle;Max_cycle;Signal;HPM_P1;HPM_P2
2021/09/09 00:01:41;;;;;;;36.35;9.43;;;;;;;14.16;62.25;101769.48;1713485;83;37522;-60
2021/09/09 00:04:09;;;;;;;29.35;8.03;;;;;;;14.13;62.31;101766.41;1688978;84;21056;-62
2021/09/09 00:09:18;;;;;;;22.90;8.30;;;;;;;14.12;62.01;101762.44;1705547;83;21558;-63
2021/09/09 00:11:48;;;;;;;33.50;8.53;;;;;;;14.11;61.85;101760.67;1703369;83;21013;-60
2021/09/09 00:14:17;;;;;;;27.85;8.58;;;;;;;14.06;61.75;101767.56;1688775;83;21069;-62
2021/09/09 00:17:20;;;;;;;25.75;8.50;;;;;;;14.02;61.72;101757.81;1686472;83;21105;-63
2021/09/09 00:25:45;;;;;;;23.85;8.40;;;;;;;14.00;61.50;101761.90;1716156;83;21136;-61
2021/09/09 00:28:24;;;;;;;20.37;7.97;;;;;;;13.97;61.87;101759.31;1716060;82;21054;-62
2021/09/09 00:33:55;;;;;;;23.75;9.40;;;;;;;13.85;62.80;101758.39;1688728;84;21100;-61
2021/09/09 00:36:58;;;;;;;32.17;8.50;;;;;;;13.78;63.17;101761.73;1693344;83;21369;-62
2021/09/09 00:39:37;;;;;;;27.20;10.10;;;;;;;13.73;63.35;101768.61;1660458;86;21997;-62
2021/09/09 00:42:05;;;;;;;32.00;9.73;;;;;;;13.65;63.56;101763.05;1672444;84;21100;-62
2021/09/09 00:44:32;;;;;;;31.65;8.83;;;;;;;13.60;63.92;101759.17;1688536;84;21584;-62
2021/09/09 00:47:08;;;;;;;21.80;8.05;;;;;;;13.55;64.23;101757.06;1688365;83;21109;-61
2021/09/09 00:49:42;;;;;;;23.12;9.33;;;;;;;13.50;64.46;101758.58;1672152;83;21512;-60
2021/09/09 00:52:11;;;;;;;33.85;9.23;;;;;;;13.43;64.65;101759.23;1700658;83;21538;-62
2021/09/09 00:54:40;;;;;;;29.20;9.40;;;;;;;13.39;64.82;101754.84;1698507;83;21109;-63
2021/09/09 00:59:58;;;;;;;28.47;10.63;;;;;;;13.37;65.05;101759.84;1683905;84;21131;-62
2021/09/09 01:02:25;;;;;;;27.20;9.48;;;;;;;13.32;65.30;101756.83;1701498;83;20998;-62
2021/09/09 01:04:53;;;;;;;29.05;10.78;;;;;;;13.28;65.74;101756.96;1712873;83;21131;-60
2021/09/09 01:07:30;;;;;;;36.25;10.72;;;;;;;13.25;65.97;101748.98;1712917;83;21461;-62
2021/09/09 01:09:58;;;;;;;26.95;9.78;;;;;;;13.22;66.28;101754.47;1711272;83;21070;-62
2021/09/09 01:12:26;;;;;;;31.93;9.48;;;;;;;13.20;66.46;101749.59;1711918;83;21078;-61
2021/09/09 01:17:40;;;;;;;24.18;10.05;;;;;;;13.15;66.95;101742.55;1782289;79;20938;-61
2021/09/09 01:20:08;;;;;;;27.10;9.58;;;;;;;13.13;67.01;101747.55;1762744;79;21069;-62
2021/09/09 01:22:36;;;;;;;33.48;10.43;;;;;;;13.12;67.04;101738.56;1787713;79;21406;-62
2021/09/09 01:30:12;;;;;;;47.25;10.68;;;;;;;13.02;67.57;101742.47;1773461;79;21703;-61
2021/09/09 01:32:39;;;;;;;38.30;11.00;;;;;;;13.00;67.45;101742.51;1794682;79;21041;-62
2021/09/09 01:35:07;;;;;;;32.33;10.45;;;;;;;13.02;67.45;101745.17;1794884;79;21010;-62
2021/09/09 01:37:37;;;;;;;48.92;9.70;;;;;;;12.98;67.44;101733.59;1782266;78;20979;-62
2021/09/09 01:40:07;;;;;;;20.90;7.20;;;;;;;13.00;67.24;101732.22;1769870;79;21047;-62
2021/09/09 01:43:05;;;;;;;25.88;7.75;;;;;;;13.04;67.02;101728.50;1784231;79;21428;-61
2021/09/09 01:59:15;;;;;;;30.60;8.50;;;;;;;13.17;65.83;101720.94;1793076;79;21035;-60
2021/09/09 02:01:42;;;;;;;31.52;8.78;;;;;;;13.14;65.91;101721.90;1795337;79;21005;-61
2021/09/09 02:04:09;;;;;;;35.25;9.28;;;;;;;13.14;65.87;101722.38;1795170;79;21405;-62
2021/09/09 02:09:23;;;;;;;25.20;8.15;;;;;;;13.14;65.59;101720.55;1761985;81;21117;-60
2021/09/09 02:11:51;;;;;;;24.77;7.37;;;;;;;13.18;65.30;101724.94;1781300;79;21044;-60
2021/09/09 02:14:18;;;;;;;27.20;7.55;;;;;;;13.24;65.06;101727.02;1788896;79;21488;-62
2021/09/09 02:19:30;;;;;;;21.35;7.12;;;;;;;13.27;64.61;101722.44;1794104;79;21028;-61
2021/09/09 02:21:59;;;;;;;21.37;7.35;;;;;;;13.24;64.54;101720.29;1794440;78;21699;-62
2021/09/09 02:25:02;;;;;;;17.95;7.28;;;;;;;13.20;64.61;101715.93;1794172;78;21078;-62
2021/09/09 02:27:31;;;;;;;18.62;7.87;;;;;;;13.13;64.72;101721.48;1779621;79;21098;-60
2021/09/09 02:32:34;;;;;;;30.50;7.62;;;;;;;12.97;65.24;101722.89;1790443;79;21128;-61
2021/09/09 02:35:00;;;;;;;24.55;8.00;;;;;;;12.93;65.45;101718.05;1787010;79;21112;-60
2021/09/09 02:37:27;;;;;;;25.37;8.05;;;;;;;12.88;65.63;101720.00;1763794;79;21067;-61
2021/09/09 02:42:58;;;;;;;26.68;8.58;;;;;;;12.73;66.16;101714.61;1761321;81;21543;-60
2021/09/09 02:45:26;;;;;;;20.77;8.35;;;;;;;12.67;66.58;101716.11;1769783;79;21074;-61
2021/09/09 02:50:29;;;;;;;21.55;8.43;;;;;;;12.53;67.20;101718.74;1794562;79;21503;-61
2021/09/09 02:52:56;;;;;;;28.75;8.53;;;;;;;12.46;67.73;101715.78;1794326;79;21021;-60
2021/09/09 02:55:23;;;;;;;24.92;7.40;;;;;;;12.45;67.98;101719.39;1793691;78;21029;-61
2021/09/09 02:57:50;;;;;;;19.95;8.00;;;;;;;12.44;68.19;101727.05;1776639;79;21082;-61
2021/09/09 03:03:01;;;;;;;21.07;8.27;;;;;;;12.36;68.76;101721.00;1765032;79;21055;-61
2021/09/09 03:05:28;;;;;;;20.45;8.80;;;;;;;12.38;68.97;101727.22;1795011;79;21766;-61
2021/09/09 03:07:55;;;;;;;28.90;8.58;;;;;;;12.37;68.99;101729.48;1794507;79;21023;-61
2021/09/09 03:10:22;;;;;;;27.62;7.92;;;;;;;12.35;69.17;101727.30;1794402;79;21058;-62
2021/09/09 03:12:49;;;;;;;30.50;8.18;;;;;;;12.35;69.20;101725.96;1776784;78;21122;-61
2021/09/09 03:15:18;;;;;;;23.87;8.30;;;;;;;12.42;69.14;101734.27;1794412;78;21463;-61
2021/09/09 03:18:19;;;;;;;22.27;8.35;;;;;;;12.48;69.03;101724.69;1789326;78;21075;-60
2021/09/09 03:20:46;;;;;;;33.00;8.03;;;;;;;12.48;68.92;101730.06;1788848;79;21106;-62
2021/09/09 03:26:00;;;;;;;28.02;7.55;;;;;;;12.45;68.86;101738.22;1789427;80;21121;-61
2021/09/09 03:28:28;;;;;;;37.30;7.85;;;;;;;12.45;68.66;101734.19;1787346;79;21047;-59
2021/09/09 03:30:55;;;;;;;32.98;8.68;;;;;;;12.43;68.68;101735.59;1788303;80;21044;-61
2021/09/09 03:36:13;;;;;;;25.55;8.93;;;;;;;12.48;68.58;101739.48;1788318;80;21239;-61
2021/09/09 03:38:41;;;;;;;43.70;9.40;;;;;;;12.50;68.80;101741.69;1761300;79;21854;-59
2021/09/09 03:46:34;;;;;;;27.60;7.85;;;;;;;12.60;68.57;101744.53;1788431;79;21037;-62
2021/09/09 03:49:01;;;;;;;35.03;9.10;;;;;;;12.64;68.62;101737.72;1757702;80;21035;-62
2021/09/09 03:51:29;;;;;;;26.02;8.75;;;;;;;12.68;68.47;101741.64;1756279;81;21102;-62
2021/09/09 03:56:34;;;;;;;45.38;9.23;;;;;;;12.75;68.29;101736.97;1756221;81;21051;-61
2021/09/09 03:59:01;;;;;;;41.20;8.95;;;;;;;12.79;68.39;101734.61;1787867;80;21051;-61
2021/09/09 04:01:28;;;;;;;43.38;8.45;;;;;;;12.85;68.90;101737.11;1779092;80;21031;-61
2021/09/09 04:07:06;;;;;;;54.77;9.33;;;;;;;13.01;68.51;101743.41;1788986;80;21015;-61
2021/09/09 04:15:44;;;;;;;42.43;11.22;;;;;;;13.37;67.88;101751.28;1788459;80;21000;-61
2021/09/09 04:18:13;;;;;;;51.60;9.93;;;;;;;13.50;67.75;101750.95;1789246;78;21103;-59
2021/09/09 04:20:41;;;;;;;45.00;8.18;;;;;;;13.63;67.37;101752.34;1814524;78;20988;-61
2021/09/09 04:23:09;;;;;;;29.50;8.33;;;;;;;13.78;67.02;101750.06;1814910;78;21639;-61
2021/09/09 04:25:57;;;;;;;42.78;8.55;;;;;;;13.90;66.44;101742.94;1814798;79;21454;-61
2021/09/09 04:28:37;;;;;;;40.33;8.95;;;;;;;14.02;66.05;101749.73;1810033;79;21049;-60
2021/09/09 04:31:04;;;;;;;31.48;8.10;;;;;;;14.16;65.69;101750.61;1781977;79;21298;-60
2021/09/09 04:33:33;;;;;;;38.10;8.40;;;;;;;14.31;65.24;101748.73;1791365;79;21028;-62
2021/09/09 04:41:16;;;;;;;43.63;8.45;;;;;;;14.74;63.50;101747.69;1814972;79;21569;-62
2021/09/09 04:43:44;;;;;;;31.57;8.10;;;;;;;14.82;62.98;101743.84;1809229;79;21491;-62
2021/09/09 04:46:11;;;;;;;28.57;8.75;;;;;;;14.89;62.63;101744.88;1808750;79;21013;-61
2021/09/09 04:49:12;;;;;;;36.08;8.75;;;;;;;15.01;62.49;101752.13;1785386;79;21044;-61
2021/09/09 04:55:01;;;;;;;28.75;8.85;;;;;;;15.33;61.36;101740.54;1814496;79;21131;-60
2021/09/09 04:57:43;;;;;;;24.40;8.13;;;;;;;15.50;60.93;101743.05;1813687;78;22068;-60
2021/09/09 05:00:11;;;;;;;21.45;7.47;;;;;;;15.66;60.47;101752.31;1805971;79;21083;-60
2021/09/09 05:02:54;;;;;;;31.55;8.88;;;;;;;15.81;59.92;101753.50;1798095;79;21012;-60
2021/09/09 05:05:21;;;;;;;30.30;9.50;;;;;;;15.97;59.54;101749.72;1812473;79;21604;-61
2021/09/09 05:07:48;;;;;;;41.98;11.15;;;;;;;16.14;59.06;101751.73;1802216;79;21059;-61
2021/09/09 05:18:17;;;;;;;40.85;10.48;;;;;;;16.74;57.25;101737.86;1808567;79;20965;-61
2021/09/09 05:20:44;;;;;;;61.68;10.88;;;;;;;16.85;56.89;101738.23;1803407;78;21966;-60
2021/09/09 05:23:27;;;;;;;43.55;10.40;;;;;;;16.94;56.87;101742.84;1821001;78;20977;-60
2021/09/09 05:25:56;;;;;;;42.50;9.83;;;;;;;17.11;56.90;101747.50;1810536;78;20977;-60
2021/09/09 05:28:29;;;;;;;43.63;9.55;;;;;;;17.27;56.56;101743.13;1816995;78;21641;-60
2021/09/09 05:33:41;;;;;;;54.53;10.00;;;;;;;17.66;55.82;101744.44;1824579;78;21106;-59
2021/09/09 05:38:40;;;;;;;38.73;9.33;;;;;;;17.97;56.19;101750.56;1800298;78;21028;-60
2021/09/09 05:41:07;;;;;;;41.20;9.40;;;;;;;18.24;55.67;101743.84;1744994;79;21391;-60
2021/09/09 05:51:30;;;;;;;42.88;7.83;;;;;;;19.08;54.95;101743.53;1768762;80;21067;-61
2021/09/09 05:56:32;;;;;;;;;;;;;;;19.54;54.89;101740.05;1782632;80;21560;-60
2021/09/09 06:07:08;;;;;;;16.85;6.17;;;;;;;20.49;53.56;101743.58;1810215;77;21032;-63
2021/09/09 06:17:33;;;;;;;16.30;6.30;;;;;;;23.01;48.77;101737.94;1803728;78;20944;-61
2021/09/09 06:32:51;;;;;;;25.32;6.42;;;;;;;22.39;50.73;101739.53;1798882;79;21027;-60
2021/09/09 06:37:48;;;;;;;10.88;5.17;;;;;;;22.82;50.03;101757.03;1805789;77;21119;-61
2021/09/09 06:40:17;;;;;;;13.78;5.47;;;;;;;22.84;49.75;101741.39;1801804;79;21044;-61
2021/09/09 06:42:44;;;;;;;17.27;6.05;;;;;;;22.77;50.13;101757.86;1801928;79;21060;-62
2021/09/09 06:45:11;;;;;;;23.00;5.72;;;;;;;22.59;50.51;101757.31;1807442;79;21036;-61
2021/09/09 06:47:39;;;;;;;17.42;5.83;;;;;;;22.44;50.92;101755.14;1798659;79;21111;-61
2021/09/09 06:50:07;;;;;;;14.38;5.47;;;;;;;22.33;50.69;101749.91;1799985;78;21111;-62
2021/09/09 06:52:34;;;;;;;17.73;6.47;;;;;;;22.20;51.34;101755.83;1796264;79;21063;-62
2021/09/09 07:00:16;;;;;;;20.70;6.25;;;;;;;21.87;52.70;101757.16;1802654;79;21445;-63
2021/09/09 07:02:43;;;;;;;22.60;6.90;;;;;;;21.81;53.04;101752.98;1801952;79;21081;-63
2021/09/09 07:05:11;;;;;;;40.75;6.50;;;;;;;21.82;53.33;101762.06;1804294;79;21949;-63
2021/09/09 07:07:40;;;;;;;25.20;5.87;;;;;;;21.78;53.87;101764.61;1801112;77;20968;-62
2021/09/09 07:10:09;;;;;;;13.93;6.40;;;;;;;21.67;54.04;101766.19;1802557;79;21075;-63
2021/09/09 07:15:53;;;;;;;14.43;6.03;;;;;;;21.44;54.85;101783.55;1739180;77;20904;31
2021/09/09 07:18:20;;;;;;;12.80;6.40;;;;;;;21.33;55.00;101777.89;1761415;80;21555;-56
2021/09/09 07:20:47;;;;;;;11.33;6.12;;;;;;;21.27;55.04;101775.56;1788470;79;21065;-56
2021/09/09 07:23:16;;;;;;;15.45;6.12;;;;;;;21.23;55.02;101775.38;1791993;79;20979;-56
2021/09/09 07:25:43;;;;;;;12.45;5.30;;;;;;;21.20;55.62;101776.95;1746185;80;20972;-57
2021/09/09 07:28:10;;;;;;;9.08;4.90;;;;;;;21.18;55.65;101779.29;1771043;79;21060;-56
2021/09/09 07:30:38;;;;;;;11.95;4.70;;;;;;;21.10;56.04;101773.93;1750516;80;21114;-56
2021/09/09 07:33:05;;;;;;;15.10;4.72;;;;;;;21.10;56.33;101780.23;1764030;79;21078;-56
2021/09/09 07:35:32;;;;;;;12.25;4.78;;;;;;;21.09;56.16;101785.31;1764542;79;21146;-57
2021/09/09 07:37:59;;;;;;;13.88;4.87;;;;;;;21.01;56.86;101784.93;1766966;79;21563;-56
2021/09/09 07:40:26;;;;;;;16.12;5.20;;;;;;;20.99;57.29;101770.52;1764809;79;21091;-57
2021/09/09 07:42:56;;;;;;;14.13;4.60;;;;;;;21.08;57.29;101778.10;1761556;79;21124;-56
2021/09/09 07:45:23;;;;;;;14.95;4.60;;;;;;;21.17;57.04;101776.17;1767763;79;21055;-57
2021/09/09 07:47:50;;;;;;;12.80;5.00;;;;;;;21.20;56.18;101770.13;1759994;79;21045;-55
2021/09/09 07:50:17;;;;;;;8.95;4.90;;;;;;;21.20;55.90;101776.44;1777349;79;21511;-56
2021/09/09 07:52:46;;;;;;;6.75;4.55;;;;;;;21.21;56.17;101770.52;1756676;80;21082;-55
2021/09/09 07:55:14;;;;;;;10.40;4.50;;;;;;;21.23;56.74;101765.84;1782553;79;21135;-55
2021/09/09 07:57:44;;;;;;;13.38;4.45;;;;;;;21.23;56.09;101767.20;1752252;80;21369;-55
2021/09/09 08:00:14;;;;;;;9.60;4.53;;;;;;;21.24;55.89;101762.14;1735820;80;21082;-55
2021/09/09 08:02:41;;;;;;;11.60;4.37;;;;;;;21.26;55.68;101758.34;1758218;80;21091;-55
2021/09/09 08:05:09;;;;;;;12.63;4.50;;;;;;;21.29;56.12;101764.07;1779328;79;21110;-56
2021/09/09 08:07:42;;;;;;;12.70;4.67;;;;;;;21.38;56.17;101768.06;1745685;80;21362;-56
2021/09/09 08:10:13;;;;;;;14.10;4.80;;;;;;;21.37;55.58;101760.38;1781869;79;21081;-56
2021/09/09 08:12:40;;;;;;;13.58;4.28;;;;;;;21.35;56.07;101758.24;1777237;79;21115;-57
2021/09/09 08:15:08;;;;;;;12.98;4.62;;;;;;;21.41;55.43;101760.56;1777610;79;21589;-57
2021/09/09 08:17:35;;;;;;;17.30;5.25;;;;;;;21.45;55.24;101752.55;1772090;79;21392;-59
2021/09/09 08:20:06;;;;;;;11.35;4.95;;;;;;;21.40;55.09;101764.27;1732645;80;21079;-58
2021/09/09 08:22:35;;;;;;;10.60;4.47;;;;;;;21.30;55.48;101753.55;1736066;80;21640;-60
2021/09/09 08:25:02;;;;;;;9.00;4.62;;;;;;;21.31;55.99;101760.75;1730790;81;21058;-62
2021/09/09 08:27:31;;;;;;;12.95;4.35;;;;;;;21.41;55.07;101749.65;1747110;80;20999;-61
2021/09/09 08:29:58;;;;;;;10.95;4.45;;;;;;;21.48;54.85;101740.58;1739423;80;21108;-61
2021/09/09 08:32:26;;;;;;;12.60;4.67;;;;;;;21.48;54.62;101747.40;1769143;79;22001;-63
2021/09/09 08:34:54;;;;;;;10.48;4.35;;;;;;;21.54;54.29;101750.19;1725068;81;21558;-61
2021/09/09 08:37:21;;;;;;;8.38;4.20;;;;;;;21.60;53.99;101756.63;1736704;80;21124;-60
2021/09/09 08:39:48;;;;;;;14.43;4.35;;;;;;;21.59;52.23;101750.28;1735423;80;21047;-60
2021/09/09 08:42:16;;;;;;;12.63;4.30;;;;;;;21.53;51.54;101752.53;1764973;79;21071;-61
2021/09/09 08:44:43;;;;;;;17.65;4.80;;;;;;;21.55;52.23;101742.39;1745265;80;21781;-61
2021/09/09 08:47:10;;;;;;;37.23;5.10;;;;;;;21.70;52.61;101745.50;1756536;79;21058;-61
2021/09/09 08:49:38;;;;;;;26.42;5.10;;;;;;;21.85;51.93;101746.83;1751786;79;21176;-61
2021/09/09 08:52:06;;;;;;;13.45;4.42;;;;;;;21.94;51.52;101748.07;1745606;79;21070;-61
2021/09/09 08:54:34;;;;;;;9.80;4.20;;;;;;;21.95;51.49;101742.48;1766560;79;21084;-60
2021/09/09 08:57:01;;;;;;;14.68;4.85;;;;;;;21.91;51.28;101751.87;1766197;79;21117;-60
2021/09/09 08:59:28;;;;;;;13.98;4.53;;;;;;;21.86;50.55;101741.77;1767690;79;21021;-62
2021/09/09 09:02:09;;;;;;;21.12;5.00;;;;;;;21.81;50.02;101739.84;1766991;79;21032;-61
2021/09/09 09:04:38;;;;;;;15.90;4.70;;;;;;;21.80;51.40;101736.72;1734167;80;21091;-60
2021/09/09 09:07:08;;;;;;;17.48;6.20;;;;;;;21.80;52.08;101732.63;1737873;80;20987;-60
2021/09/09 09:09:36;;;;;;;12.93;4.62;;;;;;;21.86;51.17;101729.48;1784867;79;21095;-59
2021/09/09 09:12:08;;;;;;;15.88;4.67;;;;;;;21.90;51.05;101744.66;1727737;80;21075;-60
2021/09/09 09:14:35;;;;;;;20.72;4.67;;;;;;;21.91;51.10;101738.22;1746805;80;21440;-60
2021/09/09 09:17:05;;;;;;;18.02;4.37;;;;;;;21.92;49.53;101733.14;1757102;79;21445;-60
2021/09/09 09:19:35;;;;;;;27.30;4.78;;;;;;;21.90;49.11;101736.47;1787872;79;21088;-59
2021/09/09 09:22:12;;;;;;;20.17;4.33;;;;;;;21.89;49.06;101731.99;1751991;80;21081;-60
2021/09/09 09:24:46;;;;;;;21.65;4.10;;;;;;;21.89;47.45;101730.62;1776538;79;21559;-60
2021/09/09 09:27:16;;;;;;;14.00;3.80;;;;;;;21.89;47.69;101731.52;1779867;79;21461;-60
2021/09/09 09:30:01;;;;;;;17.20;3.80;;;;;;;21.89;47.00;101730.62;1782860;78;21059;-60
2021/09/09 09:32:28;;;;;;;19.55;4.35;;;;;;;21.87;47.16;101728.49;1741745;81;21457;-60
2021/09/09 09:35:11;;;;;;;18.42;4.40;;;;;;;21.85;46.80;101725.00;1750368;80;21015;-62
2021/09/09 09:37:56;;;;;;;19.35;4.05;;;;;;;21.88;46.01;101731.61;1757827;80;21006;-61
2021/09/09 09:40:30;;;;;;;9.55;3.83;;;;;;;21.87;45.96;101735.31;1757811;80;21063;-60
2021/09/09 09:42:58;;;;;;;13.03;3.85;;;;;;;21.88;45.84;101726.15;1785607;79;21069;-59
2021/09/09 09:45:25;;;;;;;14.68;4.60;;;;;;;21.90;45.42;101728.28;1753820;79;21483;-60
2021/09/09 09:47:52;;;;;;;13.15;3.47;;;;;;;21.87;45.53;101727.12;1749226;80;22348;-59
2021/09/09 09:50:22;;;;;;;10.45;3.90;;;;;;;21.84;45.72;101725.47;1750417;80;21039;-60
2021/09/09 09:52:50;;;;;;;29.48;4.42;;;;;;;21.80;46.29;101731.27;1753988;80;20978;-56
2021/09/09 09:55:18;;;;;;;20.92;4.50;;;;;;;21.78;46.71;101725.03;1762224;80;21277;-59
2021/09/09 09:57:55;;;;;;;20.65;4.50;;;;;;;21.77;47.27;101725.51;1759698;80;20948;-61
2021/09/09 10:00:24;;;;;;;16.75;4.92;;;;;;;21.81;47.28;101722.09;1749643;80;20941;-60
2021/09/09 10:02:52;;;;;;;16.67;4.70;;;;;;;21.80;46.46;101736.72;1756939;80;21291;-60
2021/09/09 10:05:19;;;;;;;12.80;4.05;;;;;;;21.80;46.98;101736.22;1748141;80;21064;-61
2021/09/09 10:07:46;;;;;;;18.35;4.15;;;;;;;21.83;47.26;101728.33;1745749;80;21127;-60
2021/09/09 10:10:14;;;;;;;13.80;4.62;;;;;;;21.83;47.72;101716.04;1757240;80;21097;-62
2021/09/09 10:12:44;;;;;;;10.80;4.70;;;;;;;21.83;47.87;101727.81;1758616;80;21200;-57
2021/09/09 10:15:12;;;;;;;20.52;4.70;;;;;;;21.84;48.20;101717.79;1777486;79;21044;-57
2021/09/09 10:17:39;;;;;;;15.53;4.60;;;;;;;21.79;47.64;101725.42;1760793;79;21516;-56
2021/09/09 10:20:34;;;;;;;18.25;4.35;;;;;;;21.74;48.73;101718.39;1762941;79;21824;-59
2021/09/09 10:23:10;;;;;;;15.88;4.55;;;;;;;21.75;48.52;101724.23;1766476;79;21067;-56
2021/09/09 10:25:43;;;;;;;21.27;4.25;;;;;;;21.77;49.24;101713.23;1771888;79;21510;-58
2021/09/09 10:28:46;;;;;;;16.52;4.90;;;;;;;21.79;47.37;101712.63;1778869;79;21021;-57
2021/09/09 10:31:23;;;;;;;21.48;5.12;;;;;;;21.75;45.45;101710.59;1786672;79;21025;-57
2021/09/09 10:33:55;;;;;;;17.60;4.55;;;;;;;21.67;47.17;101709.38;1775336;79;21109;-57
2021/09/09 10:36:44;;;;;;;19.35;4.47;;;;;;;21.61;46.04;101709.27;1761171;80;21106;-58
2021/09/09 10:39:20;;;;;;;21.42;4.70;;;;;;;21.62;46.84;101702.83;1732709;81;21739;-56
2021/09/09 10:41:48;;;;;;;21.80;4.80;;;;;;;21.63;46.69;101702.32;1733631;81;21803;-57
2021/09/09 10:44:15;;;;;;;16.37;4.70;;;;;;;21.65;46.45;101704.48;1775486;79;21069;-57
2021/09/09 10:46:45;;;;;;;17.90;4.67;;;;;;;21.67;43.45;101703.42;1779607;79;21011;-56
2021/09/09 10:49:18;;;;;;;28.42;4.58;;;;;;;21.72;44.60;101697.66;1732646;81;22462;-56
2021/09/09 10:52:06;;;;;;;13.70;4.30;;;;;;;21.78;44.46;101699.11;1740331;80;21440;-58
2021/09/09 10:54:35;;;;;;;17.60;4.05;;;;;;;21.83;43.95;101694.20;1738395;80;21132;-57
2021/09/09 10:57:14;;;;;;;19.50;4.55;;;;;;;21.83;43.83;101689.60;1728419;80;21067;-57
2021/09/09 10:59:48;;;;;;;15.48;3.52;;;;;;;21.85;42.90;101684.91;1749026;80;21381;-57
2021/09/09 11:02:16;;;;;;;13.60;3.67;;;;;;;21.89;42.77;101680.13;1748494;80;21067;-57
2021/09/09 11:04:48;;;;;;;13.15;4.12;;;;;;;21.91;40.49;101682.26;1746220;80;21589;-56
2021/09/09 11:07:31;;;;;;;19.35;4.53;;;;;;;21.93;41.28;101681.66;1774480;79;21474;-57
2021/09/09 11:10:07;;;;;;;11.85;3.85;;;;;;;21.89;41.60;101681.49;1753788;80;21075;-57
2021/09/09 11:12:36;;;;;;;27.82;4.45;;;;;;;21.91;39.85;101677.30;1747974;80;21010;-57
2021/09/09 11:15:12;;;;;;;11.35;3.70;;;;;;;21.89;39.34;101664.64;1751120;80;21070;-57
2021/09/09 11:17:40;;;;;;;21.45;4.50;;;;;;;21.89;39.80;101664.64;1757032;80;21102;-62
2021/09/09 11:20:14;;;;;;;28.00;4.75;;;;;;;21.89;40.53;101655.56;1742591;81;21024;-62
2021/09/09 11:22:43;;;;;;;20.97;4.92;;;;;;;21.89;41.75;101655.08;1742549;81;21045;-62
2021/09/09 11:25:18;;;;;;;10.88;4.17;;;;;;;21.92;41.43;101654.48;1740841;80;21103;-61
2021/09/09 11:27:46;;;;;;;15.50;4.58;;;;;;;21.95;40.39;101645.56;1740305;80;21118;-61
2021/09/09 11:30:16;;;;;;;15.60;6.17;;;;;;;21.96;39.91;101648.68;1735001;79;22346;-61
2021/09/09 11:33:06;;;;;;;14.23;5.40;;;;;;;21.99;38.78;101644.88;1764492;79;21127;-60
2021/09/09 11:35:36;;;;;;;16.35;4.35;;;;;;;22.04;38.76;101643.58;1747531;80;20972;-57
2021/09/09 11:38:03;;;;;;;11.80;4.05;;;;;;;22.08;39.41;101637.91;1727399;80;21511;-58
2021/09/09 11:40:31;;;;;;;12.23;4.25;;;;;;;22.10;37.31;101630.47;1747786;80;21106;-57
2021/09/09 11:43:04;;;;;;;14.65;4.30;;;;;;;22.13;37.40;101624.80;1744731;80;21434;-61
2021/09/09 11:45:32;;;;;;;6.85;2.98;;;;;;;22.13;37.76;101619.33;1751859;80;21917;-62
2021/09/09 11:48:06;;;;;;;10.58;3.60;;;;;;;22.18;35.32;101619.87;1742371;80;21099;-59
2021/09/09 11:50:49;;;;;;;10.85;3.60;;;;;;;22.25;34.58;101621.20;1750019;80;21213;-61
2021/09/09 11:53:23;;;;;;;6.78;3.45;;;;;;;22.30;34.31;101616.28;1750930;80;21281;-55
2021/09/09 11:55:54;;;;;;;11.97;3.72;;;;;;;22.33;34.07;101605.13;1736054;79;21128;-55
2021/09/09 11:58:38;;;;;;;9.75;3.90;;;;;;;22.41;33.30;101606.43;1740066;80;20949;-57
2021/09/09 12:01:07;;;;;;;13.78;4.75;;;;;;;22.48;33.53;101603.69;1749549;80;21829;-57
2021/09/09 12:03:36;;;;;;;11.43;3.98;;;;;;;22.54;33.90;101600.50;1749409;80;21078;-62
2021/09/09 12:06:04;;;;;;;5.47;3.30;;;;;;;22.57;33.29;101590.71;1753207;80;21066;-60
2021/09/09 12:08:35;;;;;;;7.80;3.58;;;;;;;22.61;33.10;101594.96;1764123;79;21386;-61
2021/09/09 12:11:09;;;;;;;12.68;3.62;;;;;;;22.64;33.06;101595.72;1771618;79;21075;-61
2021/09/09 12:13:39;;;;;;;8.83;3.92;;;;;;;22.66;33.89;101596.48;1767107;79;20912;-61
2021/09/09 12:16:22;;;;;;;11.48;3.95;;;;;;;22.71;33.18;101591.58;1758764;80;21598;-61
2021/09/09 12:19:06;;;;;;;12.82;4.20;;;;;;;22.72;34.15;101587.34;1698234;81;21067;-56
2021/09/09 12:21:33;;;;;;;8.45;3.85;;;;;;;22.74;33.85;101588.61;1727332;81;21949;-55
2021/09/09 12:24:09;;;;;;;11.48;3.60;;;;;;;22.76;33.67;101583.90;1744585;80;21340;-55
2021/09/09 12:26:37;;;;;;;11.70;4.33;;;;;;;22.77;33.47;101582.91;1741876;80;21528;-57
2021/09/09 12:29:17;;;;;;;8.85;3.50;;;;;;;22.78;33.97;101579.19;1763338;79;20977;-57
2021/09/09 12:31:45;;;;;;;11.75;3.33;;;;;;;22.79;34.08;101578.71;1713793;81;21040;-55
2021/09/09 12:34:16;;;;;;;12.63;4.15;;;;;;;22.81;33.96;101569.91;1691491;82;21635;-61
2021/09/09 12:36:45;;;;;;;12.80;3.60;;;;;;;22.82;34.52;101571.14;1703256;82;21448;-61
2021/09/09 12:39:15;;;;;;;10.58;3.75;;;;;;;22.85;34.11;101577.73;1745730;80;21083;-62
2021/09/09 12:41:43;;;;;;;7.42;3.55;;;;;;;22.86;33.67;101572.65;1746224;80;20976;-62
2021/09/09 12:44:19;;;;;;;11.50;3.60;;;;;;;22.87;33.05;101575.76;1742987;80;21285;-61
2021/09/09 12:46:52;;;;;;;6.75;3.30;;;;;;;22.91;32.38;101581.03;1737750;80;21548;-61
2021/09/09 12:49:24;;;;;;;9.20;3.55;;;;;;;22.88;31.64;101573.44;1748431;80;21553;-61
2021/09/09 12:52:07;;;;;;;9.23;3.37;;;;;;;22.87;32.26;101569.44;1750834;80;21408;-63
2021/09/09 12:54:41;;;;;;;8.98;3.62;;;;;;;22.84;32.03;101562.33;1747165;80;21048;-61
2021/09/09 12:57:08;;;;;;;11.03;3.40;;;;;;;22.82;31.75;101554.73;1746991;80;21088;-60
2021/09/09 12:59:35;;;;;;;8.15;3.92;;;;;;;22.83;33.32;101557.84;1746781;80;22334;-61
2021/09/09 13:02:04;;;;;;;15.28;3.33;;;;;;;22.87;33.39;101553.03;1755129;80;21031;-61
2021/09/09 13:04:31;;;;;;;8.80;3.55;;;;;;;22.86;32.49;101541.72;1751966;80;21466;-55
2021/09/09 13:06:59;;;;;;;8.10;3.35;;;;;;;22.87;32.91;101549.78;1745619;80;21075;-55
2021/09/09 13:09:29;;;;;;;18.17;4.00;;;;;;;22.89;33.27;101541.00;1747173;80;21129;-56
2021/09/09 13:11:58;;;;;;;8.10;3.20;;;;;;;22.88;32.73;101532.91;1751524;80;21019;-62
2021/09/09 13:14:26;;;;;;;7.70;2.98;;;;;;;22.87;31.78;101533.38;1749993;80;21566;-55
2021/09/09 13:16:55;;;;;;;8.53;3.70;;;;;;;22.89;31.87;101529.18;1754708;80;21200;-58
2021/09/09 13:19:22;;;;;;;10.85;3.70;;;;;;;22.91;31.11;101531.81;1720593;81;22136;-57
2021/09/09 13:21:52;;;;;;;9.25;3.17;;;;;;;22.94;31.04;101530.20;1760803;80;21009;-57
2021/09/09 13:24:19;;;;;;;7.17;3.33;;;;;;;22.93;29.94;101524.36;1761248;80;21112;-57
2021/09/09 13:26:46;;;;;;;7.92;3.35;;;;;;;22.96;31.10;101524.13;1752987;80;21482;-58
2021/09/09 13:29:13;;;;;;;7.80;3.65;;;;;;;23.01;31.31;101521.91;1736138;80;21039;-56
2021/09/09 13:34:36;;;;;;;7.78;3.40;;;;;;;23.07;31.48;101515.97;1764400;80;21015;-59
2021/09/09 13:37:03;;;;;;;8.43;3.50;;;;;;;23.11;32.06;101519.34;1777645;78;21114;-60
2021/09/09 13:39:33;;;;;;;12.65;4.03;;;;;;;23.09;32.20;101517.23;1770344;80;21004;-60
2021/09/09 13:42:00;;;;;;;9.13;3.45;;;;;;;23.11;32.38;101512.52;1760509;80;21042;-60
2021/09/09 13:44:28;;;;;;;9.95;3.05;;;;;;;23.17;31.39;101511.55;1764151;80;20904;-62
2021/09/09 13:46:56;;;;;;;8.33;3.42;;;;;;;23.21;31.46;101507.21;1757564;80;21659;-62
2021/09/09 13:49:23;;;;;;;10.88;3.30;;;;;;;23.23;31.90;101499.28;1754642;80;22377;-61
2021/09/09 13:51:51;;;;;;;7.83;3.70;;;;;;;23.24;32.05;101508.34;1759320;80;21545;-62
2021/09/09 13:54:19;;;;;;;6.42;3.17;;;;;;;23.21;31.98;101503.11;1751241;80;21064;-59
2021/09/09 13:56:45;;;;;;;7.80;3.45;;;;;;;23.20;31.64;101498.63;1751931;80;21104;-62
2021/09/09 14:01:53;;;;;;;7.67;3.33;;;;;;;23.19;31.46;101496.38;1670372;84;21710;-59
2021/09/09 14:04:20;;;;;;;6.72;3.17;;;;;;;23.22;30.89;101493.91;1661992;85;21063;-60
2021/09/09 14:06:47;;;;;;;13.25;5.72;;;;;;;23.24;30.32;101490.55;1730073;81;21102;-61
2021/09/09 14:09:14;;;;;;;7.58;3.00;;;;;;;23.30;30.22;101492.36;1729377;81;21182;-62